createdAt,value
2023-01-18T00:01:19.067Z,3.46
2023-01-18T00:03:45.794Z,3.45
2023-01-18T00:06:12.783Z,3.44
2023-01-18T00:08:42.147Z,3.44
2023-01-18T00:11:15.516Z,3.41
2023-01-18T00:13:43.214Z,3.40
2023-01-18T00:16:21.756Z,3.39
2023-01-18T00:18:57.528Z,3.39
2023-01-18T00:21:27.725Z,3.36
2023-01-18T00:23:57.503Z,3.35
2023-01-18T00:26:24.310Z,3.36
2023-01-18T00:28:51.049Z,3.37
2023-01-18T00:31:21.036Z,3.36
2023-01-18T00:33:50.056Z,3.35
2023-01-18T00:36:18.593Z,3.35
2023-01-18T00:38:51.896Z,3.34
2023-01-18T00:41:20.267Z,3.33
2023-01-18T00:43:47.135Z,3.32
2023-01-18T00:46:25.687Z,3.32
2023-01-18T00:48:54.740Z,3.29
2023-01-18T00:51:24.957Z,3.29
2023-01-18T00:53:51.904Z,3.28
2023-01-18T00:56:21.893Z,3.26
2023-01-18T00:58:48.877Z,3.22
2023-01-18T01:01:15.931Z,3.23
2023-01-18T01:04:01.247Z,3.21
2023-01-18T01:06:46.627Z,3.18
2023-01-18T01:09:16.583Z,3.13
2023-01-18T01:12:04.245Z,3.12
2023-01-18T01:14:51.356Z,3.10
2023-01-18T01:17:36.737Z,3.09
2023-01-18T01:20:24.513Z,3.07
2023-01-18T01:23:10.323Z,3.05
2023-01-18T01:25:56.506Z,3.03
2023-01-18T01:28:23.991Z,3.01
2023-01-18T01:30:50.829Z,3.01
2023-01-18T01:33:18.302Z,3.02
2023-01-18T01:35:45.058Z,3.04
2023-01-18T01:38:11.771Z,3.05
2023-01-18T01:40:38.532Z,3.07
2023-01-18T01:43:13.130Z,3.10
2023-01-18T01:45:40.016Z,3.11
2023-01-18T01:48:10.451Z,3.12
2023-01-18T01:50:40.438Z,3.13
2023-01-18T01:53:10.574Z,3.19
2023-01-18T01:55:40.090Z,3.16
2023-01-18T01:58:33.521Z,3.14
2023-01-18T02:01:00.291Z,3.06
2023-01-18T02:03:27.639Z,3.06
2023-01-18T02:06:08.153Z,3.08
2023-01-18T02:08:35.105Z,3.08
2023-01-18T02:11:01.805Z,3.10
2023-01-18T02:13:28.794Z,3.10
2023-01-18T02:16:37.595Z,3.09
2023-01-18T02:19:34.851Z,3.04
2023-01-18T02:22:29.308Z,3.01
2023-01-18T02:25:05.104Z,2.98
2023-01-18T02:27:51.651Z,2.97
2023-01-18T02:30:40.096Z,3.03
2023-01-18T02:33:13.327Z,3.00
2023-01-18T02:35:52.088Z,3.03
2023-01-18T02:38:25.769Z,3.05
2023-01-18T02:41:00.994Z,3.09
2023-01-18T02:43:47.444Z,3.13
2023-01-18T02:46:33.971Z,3.07
2023-01-18T02:49:21.127Z,3.05
2023-01-18T02:51:47.884Z,3.04
2023-01-18T02:54:24.283Z,3.05
2023-01-18T02:56:54.422Z,3.07
2023-01-18T02:59:42.778Z,3.07
2023-01-18T03:02:20.478Z,3.07
2023-01-18T03:04:56.267Z,3.07
2023-01-18T03:07:50.353Z,3.11
2023-01-18T03:10:17.409Z,3.09
2023-01-18T03:13:00.314Z,3.10
2023-01-18T03:15:43.209Z,3.09
2023-01-18T03:19:02.964Z,3.10
2023-01-18T03:21:51.395Z,3.07
2023-01-18T03:24:20.248Z,3.08
2023-01-18T03:26:55.075Z,3.09
2023-01-18T03:29:42.435Z,3.11
2023-01-18T03:32:35.099Z,3.11
2023-01-18T03:35:15.839Z,3.10
2023-01-18T03:37:45.382Z,3.11
2023-01-18T03:40:38.380Z,3.12
2023-01-18T03:43:14.896Z,3.13
2023-01-18T03:45:48.640Z,3.14
2023-01-18T03:48:16.016Z,3.15
2023-01-18T03:51:02.598Z,3.15
2023-01-18T03:53:58.160Z,3.16
2023-01-18T03:56:46.037Z,3.15
2023-01-18T03:59:14.185Z,3.16
2023-01-18T04:01:41.494Z,3.16
2023-01-18T04:04:08.310Z,3.17
2023-01-18T04:06:35.056Z,3.16
2023-01-18T04:09:01.858Z,3.15
2023-01-18T04:11:28.586Z,3.16
2023-01-18T04:13:55.296Z,3.15
2023-01-18T04:16:22.453Z,3.14
2023-01-18T04:18:49.170Z,3.14
2023-01-18T04:21:15.878Z,3.15
2023-01-18T04:23:42.635Z,3.15
2023-01-18T04:26:11.712Z,3.18
2023-01-18T04:28:38.442Z,3.20
2023-01-18T04:31:05.439Z,3.24
2023-01-18T04:33:32.263Z,3.25
2023-01-18T04:35:59.523Z,3.26
2023-01-18T04:38:26.312Z,3.27
2023-01-18T04:40:53.049Z,3.28
2023-01-18T04:43:19.779Z,3.28
2023-01-18T04:45:55.033Z,3.26
2023-01-18T04:48:22.731Z,3.23
2023-01-18T04:50:50.306Z,3.21
2023-01-18T04:53:17.732Z,3.19
2023-01-18T04:55:45.916Z,3.18
2023-01-18T04:58:13.167Z,3.18
2023-01-18T05:00:40.061Z,3.18
2023-01-18T05:03:11.995Z,3.19
2023-01-18T05:05:39.263Z,3.19
2023-01-18T05:08:06.085Z,3.21
2023-01-18T05:10:33.631Z,3.21
2023-01-18T05:13:00.786Z,3.22
2023-01-18T05:15:27.838Z,3.22
2023-01-18T05:17:54.656Z,3.22
2023-01-18T05:20:21.390Z,3.20
2023-01-18T05:22:48.172Z,3.19
2023-01-18T05:25:15.026Z,3.18
2023-01-18T05:27:41.756Z,3.18
2023-01-18T05:30:11.196Z,3.17
2023-01-18T05:32:37.948Z,3.17
2023-01-18T05:35:05.592Z,3.16
2023-01-18T05:37:32.352Z,3.16
2023-01-18T05:39:59.254Z,3.14
2023-01-18T05:42:26.032Z,3.12
2023-01-18T05:44:52.754Z,3.11
2023-01-18T05:47:19.496Z,3.07
2023-01-18T05:49:46.758Z,3.06
2023-01-18T05:52:13.481Z,3.06
2023-01-18T05:54:40.178Z,3.06
2023-01-18T05:57:07.149Z,3.05
2023-01-18T05:59:33.907Z,3.06
2023-01-18T06:02:00.910Z,3.06
2023-01-18T06:04:28.244Z,3.07
2023-01-18T06:06:55.098Z,3.07
2023-01-18T06:09:21.804Z,3.05
2023-01-18T06:11:48.517Z,3.06
2023-01-18T06:14:15.470Z,3.05
2023-01-18T06:16:42.220Z,3.05
2023-01-18T06:19:09.173Z,3.04
2023-01-18T06:21:35.938Z,3.02
2023-01-18T06:24:02.965Z,3.03
2023-01-18T06:26:31.133Z,3.02
2023-01-18T06:28:58.341Z,3.03
2023-01-18T06:31:25.102Z,3.03
2023-01-18T06:33:51.899Z,3.03
2023-01-18T06:36:18.609Z,3.03
2023-01-18T06:38:45.365Z,3.05
2023-01-18T06:41:12.091Z,3.05
2023-01-18T06:43:38.785Z,3.05
2023-01-18T06:46:08.191Z,3.05
2023-01-18T06:48:35.019Z,3.04
2023-01-18T06:51:01.823Z,3.02
2023-01-18T06:53:28.574Z,3.03
2023-01-18T06:56:01.750Z,3.01
2023-01-18T06:58:30.925Z,3.01
2023-01-18T07:00:59.979Z,3.01
2023-01-18T07:03:28.661Z,3.02
2023-01-18T07:05:58.669Z,3.02
2023-01-18T07:08:26.969Z,3.02
2023-01-18T07:10:55.237Z,3.02
2023-01-18T07:13:22.218Z,3.03
2023-01-18T07:16:00.776Z,3.03
2023-01-18T07:18:30.174Z,3.03
2023-01-18T07:21:08.744Z,3.03
2023-01-18T07:23:38.515Z,3.04
2023-01-18T07:26:12.177Z,3.05
2023-01-18T07:28:39.000Z,3.05
2023-01-18T07:31:07.899Z,3.06
2023-01-18T07:33:35.951Z,3.07
2023-01-18T07:36:06.242Z,3.10
2023-01-18T07:38:33.926Z,3.11
2023-01-18T07:41:04.053Z,3.11
2023-01-18T07:43:33.166Z,3.13
2023-01-18T07:46:03.788Z,3.13
2023-01-18T07:48:31.727Z,3.19
2023-01-18T07:51:06.025Z,3.22
2023-01-18T07:53:35.950Z,3.26
2023-01-18T07:56:16.071Z,3.28
2023-01-18T07:58:43.547Z,3.34
2023-01-18T08:01:14.147Z,3.40
2023-01-18T08:03:43.634Z,3.47
2023-01-18T08:06:12.659Z,3.53
2023-01-18T08:08:40.157Z,3.60
2023-01-18T08:11:07.805Z,3.67
2023-01-18T08:13:34.600Z,3.72
2023-01-18T08:16:05.651Z,3.78
2023-01-18T08:18:32.703Z,3.87
2023-01-18T08:20:59.821Z,3.94
2023-01-18T08:23:26.850Z,4.02
2023-01-18T08:25:54.733Z,4.11
2023-01-18T08:28:21.985Z,4.19
2023-01-18T08:30:49.107Z,4.30
2023-01-18T08:33:15.885Z,4.42
2023-01-18T08:35:44.852Z,4.58
2023-01-18T08:38:14.208Z,4.75
2023-01-18T08:40:42.076Z,4.92
2023-01-18T08:43:11.705Z,5.10
2023-01-18T08:45:38.887Z,5.32
2023-01-18T08:48:18.247Z,5.56
2023-01-18T08:50:46.354Z,5.90
2023-01-18T08:53:13.353Z,6.22
2023-01-18T08:55:40.515Z,6.58
2023-01-18T08:58:07.584Z,6.96
2023-01-18T09:00:34.339Z,7.35
2023-01-18T09:03:02.615Z,7.75
2023-01-18T09:05:29.994Z,8.10
2023-01-18T09:07:57.747Z,8.38
2023-01-18T09:10:24.545Z,8.59
2023-01-18T09:12:53.588Z,8.79
2023-01-18T09:15:21.006Z,8.95
2023-01-18T09:17:47.715Z,9.10
2023-01-18T09:20:16.561Z,9.21
2023-01-18T09:22:47.568Z,9.30
2023-01-18T09:25:14.548Z,9.42
2023-01-18T09:27:41.291Z,9.58
2023-01-18T09:30:09.450Z,9.78
2023-01-18T09:32:36.226Z,10.02
2023-01-18T09:35:03.479Z,10.24
2023-01-18T09:37:31.389Z,10.47
2023-01-18T09:39:58.216Z,10.66
2023-01-18T09:42:35.728Z,10.80
2023-01-18T09:45:04.252Z,10.91
2023-01-18T09:47:39.320Z,11.00
2023-01-18T09:50:21.054Z,11.09
2023-01-18T09:53:31.222Z,11.15
2023-01-18T09:56:20.733Z,11.21
2023-01-18T09:59:27.069Z,11.31
2023-01-18T10:01:56.176Z,11.40
2023-01-18T10:04:36.171Z,11.54
2023-01-18T10:07:08.212Z,11.67
2023-01-18T10:09:42.993Z,11.77
2023-01-18T10:12:26.122Z,11.85
2023-01-18T10:15:20.382Z,11.90
2023-01-18T10:17:53.592Z,11.98
2023-01-18T10:20:44.276Z,12.13
2023-01-18T10:23:42.057Z,12.37
2023-01-18T10:26:32.529Z,12.80
2023-01-18T10:29:31.668Z,13.36
2023-01-18T10:32:10.747Z,13.99
2023-01-18T10:34:45.879Z,14.62
2023-01-18T10:37:35.676Z,15.28
2023-01-18T10:40:09.179Z,15.98
2023-01-18T10:42:53.297Z,16.66
2023-01-18T10:45:31.165Z,17.31
2023-01-18T10:48:24.999Z,17.93
2023-01-18T10:51:02.714Z,18.52
2023-01-18T10:53:33.720Z,18.98
2023-01-18T10:56:05.005Z,19.33
2023-01-18T10:58:58.350Z,19.79
2023-01-18T11:01:33.371Z,20.26
2023-01-18T11:04:16.648Z,20.63
2023-01-18T11:06:48.395Z,20.96
2023-01-18T11:09:43.587Z,21.06
2023-01-18T11:12:34.313Z,21.22
2023-01-18T11:15:25.769Z,21.42
2023-01-18T11:17:58.331Z,21.60
2023-01-18T11:20:50.372Z,21.65
2023-01-18T11:23:35.662Z,21.73
2023-01-18T11:26:17.516Z,21.85
2023-01-18T11:28:55.516Z,22.00
2023-01-18T11:31:25.667Z,22.10
2023-01-18T11:34:03.378Z,22.14
2023-01-18T11:36:40.250Z,22.08
2023-01-18T11:39:32.448Z,21.84
2023-01-18T11:42:27.166Z,21.58
2023-01-18T11:45:08.878Z,21.34
2023-01-18T11:48:06.821Z,21.15
2023-01-18T11:50:59.124Z,20.99
2023-01-18T11:53:57.603Z,20.78
2023-01-18T11:56:29.877Z,20.57
2023-01-18T11:58:56.900Z,20.35
2023-01-18T12:02:06.801Z,20.12
2023-01-18T12:05:16.562Z,19.84
2023-01-18T12:08:01.006Z,19.54
2023-01-18T12:10:58.675Z,19.25
2023-01-18T12:14:13.450Z,18.87
2023-01-18T12:17:23.971Z,18.57
2023-01-18T12:20:12.123Z,18.30
2023-01-18T12:23:31.194Z,18.02
2023-01-18T12:26:33.517Z,17.69
2023-01-18T12:29:20.269Z,17.37
2023-01-18T12:32:01.679Z,16.99
2023-01-18T12:34:58.300Z,16.59
2023-01-18T12:37:55.496Z,16.18
2023-01-18T12:40:59.069Z,15.75
2023-01-18T12:44:05.388Z,15.30
2023-01-18T12:46:49.983Z,14.93
2023-01-18T12:49:21.745Z,14.63
2023-01-18T12:52:09.247Z,14.35
2023-01-18T12:54:48.756Z,14.00
2023-01-18T12:57:17.155Z,13.70
2023-01-18T13:00:06.987Z,13.44
2023-01-18T13:02:41.081Z,13.21
2023-01-18T13:05:50.818Z,12.97
2023-01-18T13:08:32.385Z,12.75
2023-01-18T13:11:10.708Z,12.55
2023-01-18T13:13:40.824Z,12.41
2023-01-18T13:16:21.886Z,12.30
2023-01-18T13:19:03.883Z,12.18
2023-01-18T13:22:07.203Z,12.05
2023-01-18T13:25:08.831Z,11.91
2023-01-18T13:27:37.653Z,11.81
2023-01-18T13:30:16.706Z,11.73
2023-01-18T13:32:45.350Z,11.63
2023-01-18T13:35:25.845Z,11.54
2023-01-18T13:37:59.840Z,11.45
2023-01-18T13:40:51.835Z,11.36
2023-01-18T13:43:36.076Z,11.24
2023-01-18T13:46:08.731Z,11.15
2023-01-18T13:48:57.277Z,11.08
2023-01-18T13:51:42.503Z,10.96
2023-01-18T13:54:29.090Z,10.84
2023-01-18T13:57:01.520Z,10.73
2023-01-18T13:59:45.109Z,10.64
2023-01-18T14:02:23.341Z,10.53
2023-01-18T14:05:19.803Z,10.37
2023-01-18T14:07:54.563Z,10.22
2023-01-18T14:10:37.746Z,10.07
2023-01-18T14:13:08.340Z,9.94
2023-01-18T14:15:51.924Z,9.84
2023-01-18T14:18:30.618Z,9.70
2023-01-18T14:21:27.784Z,9.57
2023-01-18T14:24:42.641Z,9.41
2023-01-18T14:27:19.939Z,9.25
2023-01-18T14:29:59.093Z,9.16
2023-01-18T14:32:35.410Z,9.08
2023-01-18T14:35:15.797Z,9.02
2023-01-18T14:37:42.609Z,8.95
2023-01-18T14:40:26.684Z,8.85
2023-01-18T14:43:02.678Z,8.78
2023-01-18T14:45:32.032Z,8.68
2023-01-18T14:48:21.929Z,8.61
2023-01-18T14:50:53.158Z,8.54
2023-01-18T14:53:33.692Z,8.48
2023-01-18T14:56:10.860Z,8.42
2023-01-18T14:58:50.511Z,8.36
2023-01-18T15:01:52.616Z,8.29
2023-01-18T15:04:27.043Z,8.20
2023-01-18T15:07:03.954Z,8.17
2023-01-18T15:09:38.260Z,8.11
2023-01-18T15:12:11.890Z,8.07
2023-01-18T15:14:45.968Z,8.03
2023-01-18T15:17:22.390Z,8.01
2023-01-18T15:33:45.697Z,7.47
2023-01-18T15:37:01.938Z,7.48
2023-01-18T15:40:25.808Z,7.44
2023-01-18T15:44:00.950Z,7.39
2023-01-18T15:46:29.525Z,7.33
2023-01-18T15:48:58.098Z,7.32
2023-01-18T15:51:45.030Z,7.30
2023-01-18T15:54:22.269Z,7.27
2023-01-18T15:56:49.193Z,7.24
2023-01-18T15:59:26.489Z,7.17
2023-01-18T16:02:08.800Z,7.13
2023-01-18T16:04:36.002Z,7.08
2023-01-18T16:07:30.235Z,7.06
2023-01-18T16:10:17.806Z,6.99
2023-01-18T16:12:45.634Z,6.93
2023-01-18T16:15:30.824Z,6.89
2023-01-18T16:18:06.727Z,6.84
2023-01-18T16:20:35.777Z,6.81
2023-01-18T16:23:17.810Z,6.77
2023-01-18T16:25:53.055Z,7.04
2023-01-18T16:28:24.302Z,7.07
2023-01-18T16:30:53.193Z,6.92
2023-01-18T16:33:21.508Z,6.81
2023-01-18T16:35:49.442Z,6.73
2023-01-18T16:38:19.933Z,6.65
2023-01-18T16:40:50.259Z,6.59
2023-01-18T16:43:26.703Z,6.53
2023-01-18T16:45:58.848Z,6.48
2023-01-18T16:48:29.008Z,6.43
2023-01-18T16:50:59.378Z,6.41
2023-01-18T16:53:26.376Z,6.38
2023-01-18T16:55:53.347Z,6.36
2023-01-18T16:58:21.247Z,6.36
2023-01-18T17:01:00.171Z,6.33
2023-01-18T17:03:27.572Z,6.28
2023-01-18T17:05:55.351Z,6.26
2023-01-18T17:08:22.264Z,6.24
2023-01-18T17:10:51.740Z,6.21
2023-01-18T17:13:18.486Z,6.18
2023-01-18T17:15:45.516Z,6.15
2023-01-18T17:18:25.480Z,6.13
2023-01-18T17:20:53.937Z,6.09
2023-01-18T17:23:22.158Z,6.06
2023-01-18T17:25:49.120Z,6.02
2023-01-18T17:28:18.044Z,6.01
2023-01-18T17:30:49.241Z,6.01
2023-01-18T17:33:23.463Z,5.99
2023-01-18T17:35:53.498Z,5.96
2023-01-18T17:38:27.047Z,5.94
2023-01-18T17:40:54.045Z,5.91
2023-01-18T17:43:32.975Z,5.90
2023-01-18T17:46:05.773Z,5.89
2023-01-18T17:48:32.760Z,5.87
2023-01-18T17:50:59.754Z,5.86
2023-01-18T17:53:26.704Z,5.85
2023-01-18T17:55:53.545Z,5.83
2023-01-18T17:58:20.292Z,5.83
2023-01-18T18:00:47.178Z,5.80
2023-01-18T18:03:14.016Z,5.82
2023-01-18T18:05:40.784Z,5.82
2023-01-18T18:08:08.057Z,5.81
2023-01-18T18:10:34.837Z,5.83
2023-01-18T18:13:02.213Z,5.82
2023-01-18T18:15:29.142Z,5.83
2023-01-18T18:17:55.869Z,5.83
2023-01-18T18:20:23.019Z,5.83
2023-01-18T18:22:49.914Z,5.82
2023-01-18T18:25:18.503Z,5.82
2023-01-18T18:27:46.506Z,5.81
2023-01-18T18:30:14.866Z,5.79
2023-01-18T18:32:41.674Z,5.76
2023-01-18T18:35:24.319Z,5.77
2023-01-18T18:37:54.227Z,5.77
2023-01-18T18:40:21.531Z,5.78
2023-01-18T18:43:00.674Z,5.79
2023-01-18T18:45:30.738Z,5.79
2023-01-18T18:47:57.657Z,5.78
2023-01-18T18:50:24.385Z,5.79
2023-01-18T18:52:51.126Z,5.79
2023-01-18T18:55:18.383Z,5.80
2023-01-18T18:57:45.234Z,5.81
2023-01-18T19:00:12.869Z,5.82
2023-01-18T19:02:39.643Z,5.83
2023-01-18T19:05:07.346Z,5.82
2023-01-18T19:07:35.187Z,5.84
2023-01-18T19:10:02.095Z,5.84
2023-01-18T19:12:29.418Z,5.83
2023-01-18T19:14:56.264Z,5.84
2023-01-18T19:17:30.432Z,5.85
2023-01-18T19:19:58.413Z,5.86
2023-01-18T19:22:25.212Z,5.88
2023-01-18T19:24:52.050Z,5.89
2023-01-18T19:27:18.829Z,5.91
2023-01-18T19:29:45.554Z,5.89
2023-01-18T19:32:12.266Z,5.90
2023-01-18T19:34:39.287Z,5.91
2023-01-18T19:37:06.737Z,5.88
2023-01-18T19:39:34.838Z,5.90
2023-01-18T19:42:02.576Z,5.91
2023-01-18T19:44:29.563Z,5.91
2023-01-18T19:46:56.970Z,5.93
2023-01-18T19:49:26.201Z,5.94
2023-01-18T19:51:54.538Z,5.93
2023-01-18T19:54:22.195Z,5.93
2023-01-18T19:56:49.492Z,5.95
2023-01-18T19:59:16.281Z,5.91
2023-01-18T20:01:43.545Z,5.91
2023-01-18T20:04:10.814Z,5.90
2023-01-18T20:06:38.350Z,5.91
2023-01-18T20:09:17.826Z,5.92
2023-01-18T20:11:45.830Z,5.90
2023-01-18T20:14:13.033Z,5.93
2023-01-18T20:16:40.067Z,5.96
2023-01-18T20:19:07.001Z,5.96
2023-01-18T20:21:33.785Z,5.99
2023-01-18T20:24:00.927Z,5.98
2023-01-18T20:26:36.420Z,5.97
2023-01-18T20:29:07.296Z,5.97
2023-01-18T20:31:37.411Z,5.97
2023-01-18T20:34:05.808Z,5.99
2023-01-18T20:36:34.904Z,6.00
2023-01-18T20:39:02.790Z,6.01
2023-01-18T20:41:29.581Z,6.02
2023-01-18T20:43:56.278Z,5.99
2023-01-18T20:46:23.179Z,6.00
2023-01-18T20:48:49.998Z,6.01
2023-01-18T20:51:17.841Z,5.97
2023-01-18T20:53:44.714Z,5.97
2023-01-18T20:56:27.752Z,5.98
2023-01-18T20:58:55.517Z,5.98
2023-01-18T21:01:22.449Z,5.97
2023-01-18T21:03:55.098Z,6.02
2023-01-18T21:06:22.022Z,6.01
2023-01-18T21:08:53.338Z,6.04
2023-01-18T21:11:25.329Z,6.06
2023-01-18T21:13:53.770Z,6.09
2023-01-18T21:16:21.880Z,6.13
2023-01-18T21:18:49.179Z,6.18
2023-01-18T21:21:15.918Z,6.21
2023-01-18T21:23:42.660Z,6.24
2023-01-18T21:26:11.792Z,6.27
2023-01-18T21:28:39.335Z,6.29
2023-01-18T21:31:07.514Z,6.29
2023-01-18T21:33:35.140Z,6.32
2023-01-18T21:36:08.708Z,6.33
2023-01-18T21:38:36.248Z,6.32
2023-01-18T21:41:22.224Z,6.33
2023-01-18T21:44:09.650Z,6.36
2023-01-18T21:46:37.502Z,6.40
2023-01-18T21:49:35.689Z,6.42
2023-01-18T21:52:28.506Z,6.46
2023-01-18T21:54:55.221Z,6.50
2023-01-18T21:57:21.957Z,6.53
2023-01-18T21:59:48.827Z,6.59
2023-01-18T22:02:15.682Z,6.63
2023-01-18T22:05:00.725Z,6.67
2023-01-18T22:07:30.135Z,6.69
2023-01-18T22:10:06.650Z,6.73
2023-01-18T22:12:36.013Z,6.76
2023-01-18T22:15:04.812Z,6.80
2023-01-18T22:17:32.055Z,6.82
2023-01-18T22:19:59.746Z,6.81
2023-01-18T22:22:26.505Z,6.83
2023-01-18T22:24:53.364Z,6.85
2023-01-18T22:27:20.174Z,6.91
2023-01-18T22:29:47.134Z,6.91
2023-01-18T22:32:13.932Z,6.93
2023-01-18T22:34:40.659Z,6.90
2023-01-18T22:37:07.399Z,6.87
2023-01-18T22:39:34.094Z,6.85
2023-01-18T22:42:00.810Z,6.84
2023-01-18T22:44:27.547Z,6.83
2023-01-18T22:46:54.301Z,6.77
2023-01-18T22:49:21.039Z,6.75
2023-01-18T22:51:47.768Z,6.72
2023-01-18T22:54:15.120Z,6.68
2023-01-18T22:56:41.815Z,6.67
2023-01-18T22:59:08.860Z,6.64
2023-01-18T23:01:36.022Z,6.59
2023-01-18T23:04:04.314Z,6.58
2023-01-18T23:06:41.905Z,6.55
2023-01-18T23:09:10.144Z,6.51
2023-01-18T23:11:37.801Z,6.48
2023-01-18T23:14:23.986Z,6.48
2023-01-18T23:17:09.561Z,6.44
2023-01-18T23:19:36.808Z,6.38
2023-01-18T23:22:06.981Z,6.34
2023-01-18T23:24:38.708Z,6.35
2023-01-18T23:27:09.572Z,6.31
2023-01-18T23:29:37.165Z,6.30
2023-01-18T23:32:04.303Z,6.30
2023-01-18T23:34:31.037Z,6.27
2023-01-18T23:36:57.756Z,6.23
2023-01-18T23:39:43.127Z,6.20
2023-01-18T23:42:28.632Z,6.14
2023-01-18T23:45:13.905Z,6.10
2023-01-18T23:47:59.864Z,6.08
2023-01-18T23:50:45.290Z,6.06
2023-01-18T23:53:32.126Z,6.07
2023-01-18T23:55:59.684Z,6.05
2023-01-18T23:58:27.515Z,6.08
